Time;durP1;ratioP1;P1;durP2;ratioP2;P2;SDS_P1;SDS_P2;PMS_P1;PMS_P2;Temp;Humidity;BMP_temperature;BMP_pressure;BME280_temperature;BME280_humidity;BME280_pressure;Samples;Min_cycle;Max_cycle;Signal;HPM_P1;HPM_P2
2022/04/08 00:00:43;;;;;;;16.92;0.95;;;4.10;99.90;;;;;;5029191;28;20159;-44
2022/04/08 00:03:09;;;;;;;10.68;0.80;;;4.10;99.90;;;;;;5028720;28;20411;-44
2022/04/08 00:05:35;;;;;;;10.90;0.88;;;4.10;99.90;;;;;;5028510;28;20502;-43
2022/04/08 00:08:01;;;;;;;10.20;0.70;;;4.90;99.90;;;;;;5028844;28;20049;-43
2022/04/08 00:10:27;;;;;;;14.88;1.27;;;4.20;99.90;;;;;;5028695;28;20037;-43
2022/04/08 00:12:52;;;;;;;15.27;1.33;;;4.30;99.90;;;;;;5027464;28;20095;-45
2022/04/08 00:15:18;;;;;;;14.57;2.38;;;4.30;99.90;;;;;;5028331;28;20084;-43
2022/04/08 00:17:44;;;;;;;14.45;1.58;;;4.30;99.90;;;;;;5028496;28;20049;-43
2022/04/08 00:20:10;;;;;;;13.93;1.00;;;4.30;99.90;;;;;;5028500;28;20054;-43
2022/04/08 00:22:40;;;;;;;8.88;0.80;;;4.40;99.90;;;;;;5028316;28;20402;-44
2022/04/08 00:25:07;;;;;;;14.77;1.10;;;4.40;99.90;;;;;;5026842;28;20096;-43
2022/04/08 00:27:33;;;;;;;13.20;1.48;;;4.70;99.90;;;;;;5027419;28;20104;-42
2022/04/08 00:29:59;;;;;;;12.52;1.00;;;5.30;99.90;;;;;;5028871;28;20042;-42
2022/04/08 00:32:26;;;;;;;13.05;1.65;;;4.40;99.90;;;;;;5028308;28;20184;-43
2022/04/08 00:34:53;;;;;;;10.65;1.15;;;4.50;99.90;;;;;;5027046;28;20053;-43
2022/04/08 00:37:18;;;;;;;12.10;0.70;;;4.40;99.90;;;;;;5028186;28;20479;-44
2022/04/08 00:39:44;;;;;;;6.43;0.60;;;4.40;99.90;;;;;;5028078;28;20136;-42
2022/04/08 00:42:13;;;;;;;1.73;0.25;;;4.30;99.90;;;;;;5027178;28;20073;-43
2022/04/08 00:44:39;;;;;;;10.75;1.02;;;4.20;99.90;;;;;;5027422;28;20114;-43
2022/04/08 00:47:05;;;;;;;5.68;0.50;;;4.10;99.90;;;;;;5027808;28;20051;-42
2022/04/08 00:49:33;;;;;;;5.05;0.50;;;4.10;99.90;;;;;;5027463;28;20075;-42
2022/04/08 00:52:01;;;;;;;7.45;0.40;;;4.00;99.90;;;;;;5027556;28;20064;-43
2022/04/08 00:54:28;;;;;;;9.02;0.70;;;4.10;99.90;;;;;;5027165;28;20076;-42
2022/04/08 00:56:53;;;;;;;7.18;0.50;;;4.10;99.90;;;;;;5027390;28;20116;-42
2022/04/08 00:59:19;;;;;;;5.28;0.40;;;4.10;99.90;;;;;;5026929;28;20136;-42
2022/04/08 01:01:46;;;;;;;4.45;0.10;;;4.10;99.90;;;;;;5027202;28;20091;-42
2022/04/08 01:04:12;;;;;;;2.40;0.10;;;4.10;99.90;;;;;;5027268;28;20518;-43
2022/04/08 01:06:38;;;;;;;1.25;0.15;;;4.00;99.90;;;;;;5028622;28;20029;-43
2022/04/08 01:09:04;;;;;;;5.40;0.20;;;4.00;99.90;;;;;;5028308;28;20246;-43
2022/04/08 01:11:30;;;;;;;1.70;0.10;;;4.00;99.90;;;;;;5028237;28;20053;-43
2022/04/08 01:14:06;;;;;;;2.17;0.20;;;3.80;99.90;;;;;;5028128;28;20045;-44
2022/04/08 01:16:31;;;;;;;6.53;0.20;;;3.70;99.90;;;;;;5028162;28;20045;-43
2022/04/08 01:18:57;;;;;;;3.80;0.10;;;3.60;99.90;;;;;;5027811;28;20318;-43
2022/04/08 01:21:23;;;;;;;5.07;0.20;;;3.60;99.90;;;;;;5026769;28;20087;-42
2022/04/08 01:23:51;;;;;;;4.82;0.45;;;3.60;99.90;;;;;;5027330;28;20084;-42
2022/04/08 01:26:16;;;;;;;21.38;1.35;;;3.50;99.90;;;;;;5027747;28;20543;-44
2022/04/08 01:28:43;;;;;;;8.77;1.20;;;3.50;99.90;;;;;;5026582;28;20464;-44
2022/04/08 01:31:09;;;;;;;4.38;0.75;;;3.40;99.90;;;;;;5027465;28;20096;-42
2022/04/08 01:33:34;;;;;;;5.78;0.40;;;3.40;99.90;;;;;;5026596;28;20115;-43
2022/04/08 01:36:00;;;;;;;2.80;0.20;;;3.60;99.90;;;;;;5026765;28;20099;-43
2022/04/08 01:38:26;;;;;;;5.57;0.30;;;3.50;99.90;;;;;;5026757;28;20103;-43
2022/04/08 01:40:51;;;;;;;5.80;0.40;;;3.60;99.90;;;;;;5027165;28;20049;-43
2022/04/08 01:43:17;;;;;;;5.15;0.35;;;3.50;99.90;;;;;;5026634;28;20049;-42
2022/04/08 01:45:43;;;;;;;5.78;0.30;;;3.30;99.90;;;;;;5027938;28;20475;-43
2022/04/08 01:48:09;;;;;;;4.68;0.70;;;3.20;99.90;;;;;;5027830;28;20043;-43
2022/04/08 01:50:35;;;;;;;5.82;0.60;;;3.20;99.90;;;;;;5027515;28;20808;-42
2022/04/08 01:53:01;;;;;;;5.90;0.40;;;3.10;99.90;;;;;;5027779;28;20045;-42
2022/04/08 01:55:26;;;;;;;8.25;0.50;;;3.00;99.90;;;;;;5027767;28;20460;-44
2022/04/08 01:57:52;;;;;;;5.70;0.40;;;3.00;99.90;;;;;;5031091;28;20496;-43
2022/04/08 02:00:18;;;;;;;6.15;0.40;;;3.10;99.90;;;;;;5031146;28;20046;-42
2022/04/08 02:02:44;;;;;;;3.10;1.00;;;3.10;99.90;;;;;;5031462;28;20041;-42
2022/04/08 02:05:10;;;;;;;10.35;0.63;;;2.90;99.90;;;;;;5030891;28;20052;-42
2022/04/08 02:07:36;;;;;;;10.98;0.88;;;2.90;99.90;;;;;;5030150;28;20406;-42
2022/04/08 02:10:02;;;;;;;4.18;0.60;;;2.90;99.90;;;;;;5030037;28;20049;-42
2022/04/08 02:12:28;;;;;;;6.45;0.60;;;2.80;99.90;;;;;;5030031;28;20124;-43
2022/04/08 02:14:54;;;;;;;8.70;0.50;;;2.80;99.90;;;;;;5030780;28;20112;-43
2022/04/08 02:17:20;;;;;;;9.88;0.82;;;2.80;99.90;;;;;;5031023;28;20506;-43
2022/04/08 02:19:45;;;;;;;8.07;0.77;;;2.70;99.90;;;;;;5030812;28;20046;-42
2022/04/08 02:22:12;;;;;;;13.18;0.90;;;2.70;99.90;;;;;;5031087;28;20053;-43
2022/04/08 02:24:38;;;;;;;9.48;1.05;;;2.60;99.90;;;;;;5030520;28;20099;-42
2022/04/08 02:27:06;;;;;;;6.05;0.35;;;2.60;99.90;;;;;;5031058;28;20104;-43
2022/04/08 02:29:33;;;;;;;6.13;0.70;;;2.70;99.90;;;;;;5031069;28;20396;-42
2022/04/08 02:31:59;;;;;;;6.72;0.68;;;2.60;99.90;;;;;;5031193;28;20053;-42
2022/04/08 02:34:25;;;;;;;6.85;0.47;;;2.50;99.90;;;;;;5030847;28;20045;-42
2022/04/08 02:36:51;;;;;;;10.48;0.93;;;2.50;99.90;;;;;;5030391;28;20049;-43
2022/04/08 02:39:17;;;;;;;7.95;0.68;;;2.40;99.90;;;;;;5028093;28;20045;-42
2022/04/08 02:41:43;;;;;;;6.88;0.80;;;2.40;99.90;;;;;;5029620;28;20361;-43
2022/04/08 02:44:09;;;;;;;9.65;0.55;;;2.50;99.90;;;;;;5029527;28;20057;-42
2022/04/08 02:46:35;;;;;;;6.40;0.65;;;2.30;99.90;;;;;;5029974;28;20120;-42
2022/04/08 02:49:00;;;;;;;11.20;0.70;;;2.30;99.90;;;;;;5030410;28;20045;-44
2022/04/08 02:51:28;;;;;;;7.93;0.90;;;2.30;99.90;;;;;;5030349;28;20041;-43
2022/04/08 02:53:55;;;;;;;9.15;0.45;;;2.40;99.90;;;;;;5030133;28;20080;-43
2022/04/08 02:56:20;;;;;;;9.20;1.48;;;1.20;99.90;;;;;;5030523;28;20422;-42
2022/04/08 02:58:49;;;;;;;5.90;0.77;;;2.60;99.90;;;;;;5030252;28;20298;-42
2022/04/08 03:01:15;;;;;;;7.45;1.05;;;2.70;99.90;;;;;;5030824;28;20041;-43
2022/04/08 03:03:41;;;;;;;2.83;0.60;;;2.60;99.90;;;;;;5029443;28;20432;-42
2022/04/08 03:06:07;;;;;;;6.47;0.55;;;2.50;99.90;;;;;;5030100;28;20139;-42
2022/04/08 03:08:33;;;;;;;6.40;0.77;;;2.50;99.90;;;;;;5029549;28;20045;-43
2022/04/08 03:10:58;;;;;;;5.72;0.85;;;2.40;99.90;;;;;;5030498;28;20034;-43
2022/04/08 03:13:24;;;;;;;8.43;1.33;;;2.40;99.90;;;;;;5030043;28;20519;-43
2022/04/08 03:15:50;;;;;;;4.88;0.40;;;2.30;99.90;;;;;;5029936;28;20053;-42
2022/04/08 03:18:16;;;;;;;5.57;0.50;;;2.30;99.90;;;;;;5030539;28;20048;-42
2022/04/08 03:20:42;;;;;;;8.80;0.70;;;2.30;99.90;;;;;;5030112;28;20041;-42
2022/04/08 03:23:07;;;;;;;5.55;0.50;;;2.40;99.90;;;;;;5030223;28;20037;-42
2022/04/08 03:25:34;;;;;;;7.95;1.45;;;2.30;99.90;;;;;;5029914;28;20049;-42
2022/04/08 03:28:00;;;;;;;8.25;0.80;;;2.20;99.90;;;;;;5029937;28;20049;-42
2022/04/08 03:30:27;;;;;;;6.07;0.57;;;2.00;99.90;;;;;;5029975;28;20045;-43
2022/04/08 03:32:56;;;;;;;7.53;0.60;;;1.80;99.90;;;;;;5029634;28;20049;-42
2022/04/08 03:35:21;;;;;;;9.45;0.75;;;1.90;99.90;;;;;;5029863;28;20045;-42
2022/04/08 03:37:47;;;;;;;7.15;0.68;;;1.80;99.90;;;;;;5029675;28;20143;-44
2022/04/08 03:40:13;;;;;;;14.52;2.55;;;1.60;99.90;;;;;;5029059;28;20084;-42
2022/04/08 03:42:39;;;;;;;11.75;0.95;;;1.60;99.90;;;;;;5028324;28;20538;-42
2022/04/08 03:45:05;;;;;;;14.73;1.00;;;1.50;99.90;;;;;;5028845;28;20083;-41
2022/04/08 03:47:31;;;;;;;6.43;0.57;;;1.60;99.90;;;;;;5029291;28;20041;-42
2022/04/08 03:49:59;;;;;;;9.77;1.75;;;1.50;99.90;;;;;;5028400;28;20037;-42
2022/04/08 03:52:29;;;;;;;16.60;1.35;;;1.40;99.90;;;;;;5028638;28;20045;-42
2022/04/08 03:54:55;;;;;;;13.35;1.05;;;1.50;99.90;;;;;;5028768;28;20049;-42
2022/04/08 03:57:21;;;;;;;14.95;1.20;;;1.60;99.90;;;;;;5028968;28;20384;-41
2022/04/08 03:59:49;;;;;;;6.35;0.85;;;1.60;99.90;;;;;;5028477;28;20063;-41
2022/04/08 04:02:15;;;;;;;12.52;1.00;;;1.50;99.90;;;;;;5029054;28;20056;-42
2022/04/08 04:04:40;;;;;;;14.00;2.08;;;1.50;99.90;;;;;;5029053;28;20041;-41
2022/04/08 04:07:06;;;;;;;10.73;0.98;;;1.60;99.90;;;;;;5029176;28;20034;-42
2022/04/08 04:09:32;;;;;;;12.05;1.48;;;1.50;99.90;;;;;;5029009;28;20463;-42
2022/04/08 04:11:57;;;;;;;18.48;2.67;;;1.40;99.90;;;;;;5028913;28;20079;-42
2022/04/08 04:14:23;;;;;;;12.25;0.80;;;1.50;99.90;;;;;;5028493;28;20507;-43
2022/04/08 04:16:49;;;;;;;9.95;1.10;;;1.60;99.90;;;;;;5028582;28;20080;-42
2022/04/08 04:19:15;;;;;;;8.50;0.75;;;1.90;99.90;;;;;;5027677;28;20044;-40
2022/04/08 04:21:40;;;;;;;4.97;0.70;;;2.20;99.90;;;;;;5005344;28;20479;-40
2022/04/08 04:24:06;;;;;;;3.38;0.73;;;2.10;99.90;;;;;;4990878;28;20072;-40
2022/04/08 04:26:32;;;;;;;5.00;1.98;;;2.30;99.90;;;;;;5028447;28;20033;-40
2022/04/08 04:28:58;;;;;;;7.47;0.57;;;2.20;99.90;;;;;;5028304;28;20052;-40
2022/04/08 04:31:23;;;;;;;2.70;0.70;;;2.20;99.90;;;;;;5028283;28;20039;-40
2022/04/08 04:33:49;;;;;;;7.32;0.65;;;2.20;99.90;;;;;;5028048;28;20049;-46
2022/04/08 04:36:15;;;;;;;6.60;0.60;;;2.20;99.90;;;;;;5028628;28;20049;-45
2022/04/08 04:38:40;;;;;;;7.85;2.25;;;2.10;99.90;;;;;;5028074;28;20051;-45
2022/04/08 04:41:06;;;;;;;5.72;1.10;;;2.10;99.90;;;;;;5027713;28;20045;-48
2022/04/08 04:43:32;;;;;;;4.50;0.95;;;3.40;99.90;;;;;;5028781;28;20454;-42
2022/04/08 04:45:57;;;;;;;3.55;0.85;;;1.90;99.90;;;;;;5027959;28;20446;-47
2022/04/08 04:48:32;;;;;;;6.00;1.00;;;3.00;99.90;;;;;;5028941;28;20053;-46
2022/04/08 04:50:58;;;;;;;2.38;0.80;;;1.70;99.90;;;;;;5026331;28;20045;-46
2022/04/08 04:53:24;;;;;;;6.97;0.80;;;1.60;99.90;;;;;;5028276;28;20575;-46
2022/04/08 04:55:50;;;;;;;4.85;1.20;;;1.60;99.90;;;;;;5027338;28;20049;-47
2022/04/08 04:58:16;;;;;;;5.15;0.80;;;1.50;99.90;;;;;;5028046;28;20045;-46
2022/04/08 05:00:41;;;;;;;3.28;0.70;;;1.50;99.90;;;;;;5027069;28;20038;-46
2022/04/08 05:03:08;;;;;;;3.97;0.82;;;1.40;99.90;;;;;;5028171;28;20455;-47
2022/04/08 05:05:35;;;;;;;6.00;0.85;;;1.40;99.90;;;;;;5027995;28;20049;-46
2022/04/08 05:08:04;;;;;;;4.43;1.15;;;1.50;99.90;;;;;;5028096;28;20034;-45
2022/04/08 05:10:31;;;;;;;5.38;1.05;;;1.50;99.90;;;;;;5028161;28;20045;-48
2022/04/08 05:12:59;;;;;;;6.40;0.60;;;1.50;99.90;;;;;;5028134;28;20051;-45
2022/04/08 05:15:26;;;;;;;4.65;0.88;;;1.50;99.90;;;;;;5028309;28;20052;-46
2022/04/08 05:17:52;;;;;;;5.18;1.10;;;1.50;99.90;;;;;;5027750;28;20496;-47
2022/04/08 05:20:17;;;;;;;4.25;0.82;;;1.60;99.90;;;;;;5028232;28;20064;-46
2022/04/08 05:22:43;;;;;;;2.50;0.85;;;1.80;99.90;;;;;;5027861;28;20037;-47
2022/04/08 05:25:10;;;;;;;3.35;1.20;;;2.30;99.90;;;;;;5027677;28;20045;-46
2022/04/08 05:27:43;;;;;;;5.53;1.40;;;2.60;99.90;;;;;;5028032;28;20518;-46
2022/04/08 05:30:16;;;;;;;6.70;1.42;;;3.10;99.90;;;;;;5027909;28;20631;-46
2022/04/08 05:32:42;;;;;;;4.50;1.17;;;3.60;99.90;;;;;;5032257;28;20049;-46
2022/04/08 05:35:08;;;;;;;3.03;0.98;;;3.80;99.90;;;;;;5031813;28;20126;-46
2022/04/08 05:37:44;;;;;;;10.27;1.83;;;3.90;99.90;;;;;;5032002;28;20566;-45
2022/04/08 05:40:14;;;;;;;3.75;0.80;;;3.90;99.90;;;;;;5030202;28;20053;-46
2022/04/08 05:42:40;;;;;;;3.67;0.65;;;4.10;99.90;;;;;;5031243;28;20060;-46
2022/04/08 05:45:09;;;;;;;4.85;1.17;;;4.30;99.90;;;;;;5031443;28;20164;-46
2022/04/08 05:47:35;;;;;;;5.20;0.70;;;4.90;99.90;;;;;;5031874;28;20045;-45
2022/04/08 05:50:02;;;;;;;4.13;0.82;;;5.40;99.90;;;;;;5031451;28;20128;-47
2022/04/08 05:52:28;;;;;;;3.25;0.70;;;6.20;99.90;;;;;;5030903;28;20077;-47
2022/04/08 05:54:54;;;;;;;4.50;1.02;;;7.10;99.90;;;;;;5030375;28;20568;-48
2022/04/08 05:57:19;;;;;;;5.47;0.50;;;7.50;99.90;;;;;;5031738;28;20089;-48
2022/04/08 05:59:46;;;;;;;5.25;1.50;;;7.80;99.90;;;;;;5031649;28;20045;-50
2022/04/08 06:02:12;;;;;;;4.57;1.00;;;7.60;99.90;;;;;;5031207;28;20037;-47
2022/04/08 06:04:37;;;;;;;3.30;0.40;;;6.70;99.90;;;;;;5031462;28;20041;-48
2022/04/08 06:07:03;;;;;;;6.70;0.65;;;5.80;99.90;;;;;;5029477;28;20045;-48
2022/04/08 06:09:29;;;;;;;5.10;1.02;;;5.70;99.90;;;;;;5031285;28;20077;-48
2022/04/08 06:11:55;;;;;;;5.80;0.90;;;6.20;99.90;;;;;;5031144;28;20133;-47
2022/04/08 06:14:20;;;;;;;8.57;1.17;;;6.80;99.90;;;;;;5030109;28;20057;-47
2022/04/08 06:16:46;;;;;;;3.80;0.30;;;8.10;99.90;;;;;;5030984;28;20569;-47
2022/04/08 06:19:12;;;;;;;7.35;0.60;;;7.60;99.90;;;;;;5028691;28;20069;-47
2022/04/08 06:21:38;;;;;;;3.80;0.40;;;6.80;99.90;;;;;;5030178;28;20071;-47
2022/04/08 06:24:04;;;;;;;3.17;0.32;;;6.90;99.90;;;;;;5030126;28;20045;-46
2022/04/08 06:26:32;;;;;;;4.65;0.30;;;6.70;99.90;;;;;;5030486;28;20073;-48
2022/04/08 06:28:58;;;;;;;3.75;0.30;;;7.30;99.90;;;;;;5030488;28;20128;-47
2022/04/08 06:31:28;;;;;;;1.75;0.30;;;6.00;99.90;;;;;;5030928;28;20788;-48
2022/04/08 06:33:54;;;;;;;0.52;0.30;;;5.40;99.90;;;;;;5031442;28;20038;-47
2022/04/08 06:36:20;;;;;;;5.22;1.08;;;4.80;99.90;;;;;;5030548;28;20115;-47
2022/04/08 06:38:48;;;;;;;2.70;0.30;;;4.50;99.90;;;;;;5030661;28;20045;-46
2022/04/08 06:41:14;;;;;;;5.30;0.47;;;5.00;99.90;;;;;;5030685;28;20658;-47
2022/04/08 06:43:40;;;;;;;4.32;0.40;;;5.30;99.90;;;;;;5029246;28;20053;-49
2022/04/08 06:46:05;;;;;;;4.13;0.40;;;6.30;99.90;;;;;;5030605;28;20045;-47
2022/04/08 06:48:32;;;;;;;3.05;0.52;;;6.70;99.90;;;;;;5030826;28;20037;-47
2022/04/08 06:51:00;;;;;;;2.35;0.28;;;7.80;99.90;;;;;;5030677;28;20115;-48
2022/04/08 06:53:26;;;;;;;6.10;0.68;;;6.80;99.90;;;;;;5029372;28;20087;-47
2022/04/08 06:55:52;;;;;;;4.45;0.40;;;7.00;99.90;;;;;;5030258;28;20045;-47
2022/04/08 06:58:19;;;;;;;2.72;0.52;;;6.80;99.90;;;;;;5030130;28;20048;-48
2022/04/08 07:00:45;;;;;;;4.53;0.30;;;7.00;99.90;;;;;;5030330;28;20609;-47
2022/04/08 07:03:11;;;;;;;1.38;0.38;;;6.60;99.90;;;;;;5030331;28;20501;-48
2022/04/08 07:05:36;;;;;;;8.50;1.45;;;6.50;99.90;;;;;;5030091;28;20041;-48
2022/04/08 07:08:02;;;;;;;3.67;0.30;;;6.40;99.90;;;;;;5029941;28;20044;-49
2022/04/08 07:10:28;;;;;;;6.43;1.58;;;6.20;99.90;;;;;;5029878;28;20390;-48
2022/04/08 07:12:54;;;;;;;5.43;0.40;;;5.90;99.90;;;;;;5029682;28;20120;-48
2022/04/08 07:15:20;;;;;;;3.05;0.45;;;5.50;99.90;;;;;;5029743;28;20773;-49
2022/04/08 07:17:45;;;;;;;3.97;0.40;;;5.70;99.90;;;;;;5029782;28;20045;-48
2022/04/08 07:20:13;;;;;;;3.20;0.82;;;5.60;99.90;;;;;;5029728;28;20645;-48
2022/04/08 07:22:40;;;;;;;3.03;0.40;;;5.40;99.90;;;;;;5030011;28;20126;-49
2022/04/08 07:25:06;;;;;;;3.75;0.30;;;5.40;99.90;;;;;;5029325;28;20056;-48
2022/04/08 07:27:42;;;;;;;3.72;0.50;;;5.40;99.90;;;;;;5029848;28;20171;-48
2022/04/08 07:30:08;;;;;;;3.97;0.40;;;5.40;99.90;;;;;;5030356;28;20118;-49
2022/04/08 07:32:33;;;;;;;3.85;0.50;;;5.50;99.90;;;;;;5030095;28;20211;-47
2022/04/08 07:34:59;;;;;;;2.28;0.40;;;5.60;99.90;;;;;;5029854;28;20124;-47
2022/04/08 07:37:32;;;;;;;5.15;0.70;;;5.90;99.90;;;;;;5027982;28;20053;-46
2022/04/08 07:39:58;;;;;;;2.83;0.32;;;6.00;99.90;;;;;;5029570;28;20041;-46
2022/04/08 07:42:25;;;;;;;3.75;0.38;;;6.30;99.90;;;;;;5029078;28;20527;-49
2022/04/08 07:44:51;;;;;;;2.92;0.40;;;6.30;99.90;;;;;;5029150;28;20060;-46
2022/04/08 07:47:18;;;;;;;2.53;0.63;;;6.80;99.90;;;;;;5029267;28;20763;-46
2022/04/08 07:49:44;;;;;;;2.08;0.20;;;7.00;99.90;;;;;;5029760;28;20428;-47
2022/04/08 07:52:10;;;;;;;2.25;0.50;;;6.70;99.90;;;;;;5029548;28;20041;-46
2022/04/08 07:54:36;;;;;;;4.28;0.30;;;6.70;99.90;;;;;;5029280;28;20039;-45
2022/04/08 07:57:01;;;;;;;5.70;0.40;;;7.20;99.90;;;;;;5029125;28;20041;-46
2022/04/08 07:59:27;;;;;;;3.90;0.50;;;7.00;99.90;;;;;;5029116;28;20547;-46
2022/04/08 08:01:53;;;;;;;4.15;0.35;;;6.90;99.90;;;;;;5029094;28;20116;-47
2022/04/08 08:04:18;;;;;;;3.00;0.32;;;7.00;99.90;;;;;;5028833;28;20037;-46
2022/04/08 08:06:44;;;;;;;3.05;1.30;;;7.20;99.90;;;;;;5029252;28;20125;-46
2022/04/08 08:09:10;;;;;;;3.55;0.35;;;7.40;99.90;;;;;;5029030;28;20088;-46
2022/04/08 08:11:35;;;;;;;8.90;0.60;;;5.90;99.90;;;;;;5028977;28;20524;-47
2022/04/08 08:14:01;;;;;;;5.43;0.80;;;7.90;99.90;;;;;;5029576;28;20045;-46
2022/04/08 08:16:27;;;;;;;4.13;0.22;;;8.90;99.90;;;;;;5028804;28;20516;-46
2022/04/08 08:18:56;;;;;;;7.65;0.70;;;6.70;99.90;;;;;;5028190;28;20451;-46
2022/04/08 08:21:23;;;;;;;7.57;0.55;;;7.10;99.90;;;;;;5027704;28;20056;-45
2022/04/08 08:23:49;;;;;;;4.03;1.02;;;6.00;99.90;;;;;;5027597;28;20519;-46
2022/04/08 08:26:15;;;;;;;5.30;0.75;;;6.00;99.90;;;;;;5027799;28;20087;-47
2022/04/08 08:28:41;;;;;;;3.05;0.70;;;6.30;99.90;;;;;;5028300;28;20038;-46
2022/04/08 08:31:07;;;;;;;5.63;0.90;;;7.00;99.90;;;;;;5026294;28;20052;-47
2022/04/08 08:33:33;;;;;;;6.15;1.30;;;8.10;99.90;;;;;;5027305;28;20561;-49
2022/04/08 08:35:58;;;;;;;3.78;0.85;;;8.60;99.90;;;;;;5028510;28;20049;-46
2022/04/08 08:38:24;;;;;;;6.97;1.15;;;9.90;99.90;;;;;;5027967;28;20052;-47
2022/04/08 08:40:50;;;;;;;7.30;0.75;;;10.70;99.90;;;;;;5028230;28;20050;-47
2022/04/08 08:43:17;;;;;;;6.13;0.95;;;11.50;99.90;;;;;;5027929;28;20045;-47
2022/04/08 08:45:45;;;;;;;6.07;1.00;;;12.30;99.90;;;;;;5028358;28;20103;-48
2022/04/08 08:48:13;;;;;;;9.93;1.42;;;12.30;99.90;;;;;;5028046;28;20480;-49
2022/04/08 08:50:39;;;;;;;6.03;1.52;;;12.30;99.90;;;;;;5028130;28;20049;-47
2022/04/08 08:53:05;;;;;;;5.13;0.60;;;12.90;99.90;;;;;;5028034;28;20480;-49
2022/04/08 08:55:31;;;;;;;8.80;1.75;;;13.50;99.90;;;;;;5027770;28;20100;-48
2022/04/08 08:57:56;;;;;;;5.10;1.08;;;14.10;99.90;;;;;;5028014;28;20045;-48
2022/04/08 09:00:23;;;;;;;4.57;0.60;;;14.20;99.90;;;;;;5028099;28;20511;-48
2022/04/08 09:02:51;;;;;;;3.97;0.90;;;13.00;99.90;;;;;;5028039;28;20049;-49
2022/04/08 09:05:18;;;;;;;8.68;0.80;;;12.80;99.90;;;;;;5028113;28;20061;-50
2022/04/08 09:07:59;;;;;;;6.07;0.50;;;12.60;99.90;;;;;;5028405;28;20037;-49
2022/04/08 09:10:31;;;;;;;7.65;0.85;;;12.10;99.90;;;;;;5028037;28;20045;-49
2022/04/08 09:12:57;;;;;;;;;;;11.70;99.90;;;;;;5028840;28;20045;-48
2022/04/08 09:15:23;;;;;;;7.07;0.60;;;12.40;99.90;;;;;;5028365;28;19928;-48
2022/04/08 09:17:50;;;;;;;4.43;0.73;;;12.30;99.90;;;;;;5026754;28;20063;-50
2022/04/08 09:20:16;;;;;;;5.15;0.55;;;11.80;99.90;;;;;;5028218;28;20514;-48
2022/04/08 09:22:43;;;;;;;6.32;0.50;;;12.00;99.90;;;;;;5027956;28;20107;-48
2022/04/08 09:25:12;;;;;;;4.28;0.45;;;12.60;99.90;;;;;;5028163;28;20045;-50
2022/04/08 09:27:40;;;;;;;6.05;0.40;;;13.10;99.90;;;;;;5027725;28;20041;-47
2022/04/08 09:30:08;;;;;;;4.40;0.47;;;13.50;99.90;;;;;;5027670;28;20125;-49
2022/04/08 09:32:34;;;;;;;4.88;0.43;;;13.90;99.90;;;;;;5027407;28;20498;-50
2022/04/08 09:35:01;;;;;;;5.28;0.40;;;14.50;99.90;;;;;;5028293;28;20845;-48
2022/04/08 09:37:28;;;;;;;5.72;0.63;;;14.00;99.90;;;;;;5027933;28;20042;-47
2022/04/08 09:39:55;;;;;;;6.00;0.98;;;13.40;99.90;;;;;;5028194;28;20045;-48
2022/04/08 09:42:21;;;;;;;3.15;0.40;;;13.20;99.90;;;;;;5027961;28;20663;-47
2022/04/08 09:44:47;;;;;;;7.28;0.73;;;12.60;99.90;;;;;;5027687;28;20061;-48
2022/04/08 09:47:14;;;;;;;8.75;1.35;;;12.10;99.90;;;;;;5028089;28;20053;-48
2022/04/08 09:49:41;;;;;;;8.45;0.80;;;10.50;99.90;;;;;;5028120;28;20051;-48
2022/04/08 09:52:08;;;;;;;4.47;0.70;;;10.30;99.90;;;;;;5027914;28;20582;-49
2022/04/08 09:54:39;;;;;;;7.05;0.60;;;11.10;99.90;;;;;;5026311;28;20045;-47
2022/04/08 09:57:11;;;;;;;5.25;0.60;;;12.10;99.90;;;;;;5027788;28;20180;-48
2022/04/08 09:59:38;;;;;;;4.70;0.85;;;12.40;99.90;;;;;;5027322;28;20049;-48
2022/04/08 10:02:05;;;;;;;8.85;0.80;;;12.90;99.90;;;;;;5027429;28;20041;-48
2022/04/08 10:04:34;;;;;;;4.43;0.98;;;13.70;99.90;;;;;;5027568;28;20038;-48
2022/04/08 10:07:01;;;;;;;5.70;0.63;;;14.30;99.90;;;;;;5027362;28;20551;-48
2022/04/08 10:09:32;;;;;;;10.55;0.98;;;14.80;99.90;;;;;;5027248;28;20100;-49
2022/04/08 10:12:06;;;;;;;5.93;0.52;;;14.90;99.90;;;;;;5027876;28;20047;-52
2022/04/08 10:14:42;;;;;;;6.85;0.70;;;14.20;97.70;;;;;;5027674;28;20029;-48
2022/04/08 10:17:09;;;;;;;3.63;0.70;;;13.60;97.70;;;;;;5027895;28;20037;-49
2022/04/08 10:19:35;;;;;;;3.70;0.40;;;13.50;99.90;;;;;;5031330;28;20046;-51
2022/04/08 10:22:01;;;;;;;6.57;0.93;;;13.30;98.40;;;;;;5031135;28;20140;-49
2022/04/08 10:24:28;;;;;;;3.55;0.52;;;12.90;99.90;;;;;;5031164;28;20176;-48
2022/04/08 10:27:08;;;;;;;5.82;0.93;;;12.70;99.60;;;;;;5031123;28;20685;-48
2022/04/08 10:29:35;;;;;;;4.38;0.63;;;12.20;99.60;;;;;;5030718;28;20041;-49
2022/04/08 10:32:14;;;;;;;2.70;0.70;;;11.80;99.80;;;;;;5030769;28;20570;-49
2022/04/08 10:34:40;;;;;;;7.63;0.70;;;11.70;99.90;;;;;;5030956;28;20111;-48
2022/04/08 10:37:21;;;;;;;5.60;0.63;;;12.30;99.90;;;;;;5030822;28;20045;-46
2022/04/08 10:40:16;;;;;;;3.45;0.52;;;12.90;99.90;;;;;;5030494;28;20049;-47
2022/04/08 10:42:42;;;;;;;4.68;0.70;;;12.80;98.90;;;;;;5025836;28;20046;-48
2022/04/08 10:45:15;;;;;;;6.38;0.70;;;12.90;97.10;;;;;;5030246;28;20064;-48
2022/04/08 10:47:47;;;;;;;2.63;0.20;;;12.90;95.30;;;;;;5030497;28;20061;-51
2022/04/08 10:50:33;;;;;;;3.40;0.40;;;12.30;95.70;;;;;;5030775;28;20072;-51
2022/04/08 10:53:13;;;;;;;3.97;0.60;;;11.80;95.20;;;;;;5030345;28;20042;-47
2022/04/08 10:55:49;;;;;;;3.75;0.55;;;11.40;97.30;;;;;;5030524;28;20063;-48
2022/04/08 10:58:15;;;;;;;5.85;0.65;;;11.20;98.70;;;;;;5030551;28;20049;-48
2022/04/08 11:00:42;;;;;;;3.15;0.20;;;10.90;98.40;;;;;;5030138;28;20507;-48
2022/04/08 11:03:11;;;;;;;5.63;0.88;;;10.60;98.40;;;;;;5030344;28;20041;-49
2022/04/08 11:05:40;;;;;;;3.25;0.55;;;10.50;98.40;;;;;;5030152;28;20034;-49
2022/04/08 11:08:08;;;;;;;4.97;0.52;;;10.00;99.90;;;;;;5030170;28;20033;-49
2022/04/08 11:10:34;;;;;;;5.85;0.63;;;9.90;99.90;;;;;;5030259;28;20044;-49
2022/04/08 11:13:00;;;;;;;8.55;0.55;;;9.60;99.90;;;;;;5030185;28;20049;-48
2022/04/08 11:15:30;;;;;;;5.20;0.52;;;9.30;99.90;;;;;;5030596;28;20476;-48
2022/04/08 11:17:59;;;;;;;5.63;1.40;;;9.40;99.90;;;;;;5030282;28;20041;-50
2022/04/08 11:20:24;;;;;;;3.42;0.63;;;10.00;99.90;;;;;;5030392;28;20045;-47
2022/04/08 11:22:52;;;;;;;5.43;0.68;;;10.80;99.90;;;;;;5029953;28;20048;-48
2022/04/08 11:25:25;;;;;;;5.30;1.88;;;10.60;99.90;;;;;;5030341;28;20124;-48
2022/04/08 11:28:12;;;;;;;5.55;0.50;;;10.20;99.90;;;;;;5029938;28;20037;-51
2022/04/08 11:30:39;;;;;;;4.95;0.40;;;11.30;99.90;;;;;;5029631;28;20451;-48
2022/04/08 11:33:16;;;;;;;7.30;0.80;;;10.10;99.90;;;;;;5030166;28;20049;-48
2022/04/08 11:35:42;;;;;;;4.07;0.40;;;10.80;99.90;;;;;;5029435;28;20491;-47
2022/04/08 11:38:15;;;;;;;4.93;1.48;;;10.10;99.90;;;;;;5029824;28;20049;-46
2022/04/08 11:40:41;;;;;;;5.18;0.70;;;10.00;99.90;;;;;;5029429;28;20045;-47
2022/04/08 11:43:11;;;;;;;2.75;0.30;;;10.20;99.90;;;;;;5029391;28;20073;-51
2022/04/08 11:45:37;;;;;;;4.25;0.40;;;11.10;99.90;;;;;;5029664;28;20049;-50
2022/04/08 11:48:06;;;;;;;4.75;0.40;;;10.30;99.90;;;;;;5029090;28;20059;-48
2022/04/08 11:50:35;;;;;;;2.90;0.40;;;10.40;99.90;;;;;;5029637;28;20044;-48
2022/04/08 11:53:02;;;;;;;5.07;0.57;;;10.50;99.90;;;;;;5029556;28;20115;-48
2022/04/08 11:55:28;;;;;;;5.45;0.35;;;10.20;99.90;;;;;;5029461;28;20120;-47
2022/04/08 11:57:55;;;;;;;2.20;0.43;;;9.40;99.90;;;;;;5029064;28;20163;-48
2022/04/08 12:00:28;;;;;;;4.28;0.73;;;9.00;99.90;;;;;;5029400;28;20037;-49
2022/04/08 12:02:58;;;;;;;3.88;0.43;;;8.70;99.90;;;;;;5029468;28;20029;-48
2022/04/08 12:05:29;;;;;;;5.13;0.35;;;9.20;99.90;;;;;;5029400;28;20081;-48
2022/04/08 12:07:58;;;;;;;5.50;0.80;;;8.40;99.90;;;;;;5028860;28;20488;-49
2022/04/08 12:10:24;;;;;;;7.05;0.55;;;8.30;99.90;;;;;;5029138;28;20045;-50
2022/04/08 12:12:51;;;;;;;3.03;0.43;;;8.60;99.90;;;;;;5028738;28;20049;-48
2022/04/08 12:15:22;;;;;;;5.00;0.32;;;8.90;99.90;;;;;;5029556;28;20119;-49
2022/04/08 12:17:48;;;;;;;3.55;0.20;;;8.80;99.90;;;;;;5028641;28;20050;-48
2022/04/08 12:20:20;;;;;;;9.25;0.77;;;10.00;99.90;;;;;;5028930;28;20041;-48
2022/04/08 12:22:50;;;;;;;3.85;0.20;;;9.90;99.90;;;;;;5028542;28;20746;-49
2022/04/08 12:25:18;;;;;;;4.68;0.50;;;9.60;99.90;;;;;;5028631;28;20041;-48
2022/04/08 12:27:50;;;;;;;5.53;0.40;;;9.70;99.90;;;;;;5028736;28;20055;-48
2022/04/08 12:30:16;;;;;;;8.00;1.15;;;9.80;99.90;;;;;;5028793;28;20116;-48
2022/04/08 12:32:43;;;;;;;5.57;0.63;;;10.00;99.90;;;;;;5028902;28;20128;-48
2022/04/08 12:35:11;;;;;;;5.72;0.55;;;10.10;99.90;;;;;;5028113;28;20051;-48
2022/04/08 12:37:37;;;;;;;3.88;0.38;;;10.10;99.90;;;;;;5028520;28;20571;-48
2022/04/08 12:40:05;;;;;;;2.75;0.43;;;10.60;99.90;;;;;;5027844;28;20041;-48
2022/04/08 12:42:38;;;;;;;4.28;0.47;;;10.00;99.90;;;;;;5028630;28;20084;-48
2022/04/08 12:45:05;;;;;;;2.30;0.20;;;10.60;99.90;;;;;;5027821;28;20080;-48
2022/04/08 12:47:32;;;;;;;6.10;0.20;;;10.10;99.90;;;;;;5028581;28;20383;-47
2022/04/08 12:49:57;;;;;;;2.53;0.10;;;10.50;99.90;;;;;;5028344;28;20121;-48
2022/04/08 12:52:24;;;;;;;4.30;0.20;;;11.00;99.90;;;;;;5028372;28;20124;-48